Weather at Minister Pistarini International Airport

Public forecast

Using degrees Celsius for public forecast. Weather courtesy of forecast.io.

Current aviation weather report (METAR) for Minister Pistarini International Airport

2024/05/30 16:00 (retrieved 50 minutes ago)

SAEZ 301600Z 32003KT 9999 BKN045 17/07 Q1023 NOSIG

Aviation forecast (TAF) for Minister Pistarini International Airport

2024/05/30 12:03 (retrieved 5 hours ago)

TAF SAEZ 301100Z 3012/3112 30005KT 9999 SCT020 BKN030 TX17/3018Z TN10/3109Z BECMG 3018/3021 VRB05KT 9999 BKN040 OVC050 BECMG 3100/3103 CAVOK PROB30 3106/3112 5000 BR BKN008